Time;durP1;ratioP1;P1;durP2;ratioP2;P2;SDS_P1;SDS_P2;PMS_P1;PMS_P2;Temp;Humidity;BMP_temperature;BMP_pressure;BME280_temperature;BME280_humidity;BME280_pressure;Samples;Min_cycle;Max_cycle;Signal;HPM_P1;HPM_P2
2021/04/05 00:00:15;;;;;;;33.33;8.98;;;;;;;2.99;100.00;97232.66;5046800;28;20135;-80
2021/04/05 00:02:42;;;;;;;36.65;9.32;;;;;;;3.29;100.00;97228.19;5027835;28;20257;-80
2021/04/05 00:05:13;;;;;;;30.35;8.77;;;;;;;3.61;100.00;97228.50;5045739;28;20076;-81
2021/04/05 00:07:44;;;;;;;33.03;8.70;;;;;;;3.80;100.00;97208.00;5048809;28;20287;-80
2021/04/05 00:10:14;;;;;;;28.48;8.77;;;;;;;3.90;100.00;97188.38;5046216;28;20049;-80
2021/04/05 00:12:40;;;;;;;29.98;9.48;;;;;;;3.91;100.00;97187.28;5029952;28;20053;-84
2021/04/05 00:15:09;;;;;;;23.88;7.65;;;;;;;4.05;100.00;97174.81;5028833;28;20107;-82
2021/04/05 00:17:39;;;;;;;31.38;8.38;;;;;;;4.13;100.00;97166.19;5011824;28;20512;-81
2021/04/05 00:20:12;;;;;;;32.55;8.15;;;;;;;4.17;100.00;97176.03;5027514;28;20279;-83
2021/04/05 00:22:43;;;;;;;30.38;8.88;;;;;;;4.17;100.00;97162.63;5021145;23;20046;-74
2021/04/05 00:25:11;;;;;;;31.90;8.40;;;;;;;4.26;100.00;97152.06;4998603;28;20225;-73
2021/04/05 00:27:38;;;;;;;26.45;8.05;;;;;;;4.39;100.00;97154.84;4998726;28;20054;-75
2021/04/05 00:30:18;;;;;;;44.55;9.38;;;;;;;4.34;100.00;97149.56;4990283;28;20050;-75
2021/04/05 00:32:48;;;;;;;28.83;7.80;;;;;;;4.45;100.00;97144.88;4991174;28;20053;-74
2021/04/05 00:35:20;;;;;;;29.80;7.97;;;;;;;4.43;100.00;97130.97;4992867;28;20125;-75
2021/04/05 00:37:48;;;;;;;32.55;8.27;;;;;;;4.44;100.00;97129.88;5052771;23;20049;-77
2021/04/05 00:40:19;;;;;;;33.13;8.52;;;;;;;4.53;100.00;97125.47;5063379;28;20040;-76
2021/04/05 00:42:46;;;;;;;30.15;8.55;;;;;;;4.50;100.00;97127.94;5063497;28;20042;-77
2021/04/05 00:45:17;;;;;;;37.20;9.65;;;;;;;4.39;100.00;97119.22;5066258;28;20075;-77
2021/04/05 00:47:49;;;;;;;35.65;9.50;;;;;;;4.46;100.00;97119.69;5051667;28;20040;-77
2021/04/05 00:50:35;;;;;;;31.95;9.00;;;;;;;4.38;100.00;97113.09;5064638;28;20052;-78
2021/04/05 00:53:05;;;;;;;32.83;9.02;;;;;;;4.39;100.00;97097.78;5053985;28;20416;-79
2021/04/05 00:55:32;;;;;;;31.00;9.65;;;;;;;4.38;100.00;97096.22;5067031;28;20041;-78
2021/04/05 00:58:02;;;;;;;29.42;9.02;;;;;;;4.42;100.00;97081.13;5051520;28;20063;-77
2021/04/05 01:00:28;;;;;;;34.88;10.15;;;;;;;4.48;100.00;97082.66;5052856;28;20447;-77
2021/04/05 01:02:54;;;;;;;36.58;10.68;;;;;;;4.57;100.00;97072.09;5045240;28;20049;-76
2021/04/05 01:05:21;;;;;;;30.92;9.80;;;;;;;4.47;100.00;97059.63;5052383;28;20037;-77
2021/04/05 01:07:47;;;;;;;33.00;10.90;;;;;;;4.57;100.00;97058.72;5051561;28;20044;-77
2021/04/05 01:10:14;;;;;;;42.40;10.73;;;;;;;4.52;100.00;97046.16;5057469;28;20041;-77
2021/04/05 01:12:41;;;;;;;37.70;10.40;;;;;;;4.65;100.00;97044.63;5071970;28;20462;-76
2021/04/05 01:15:11;;;;;;;36.20;10.73;;;;;;;4.71;100.00;97036.22;5082889;28;20047;-78
2021/04/05 01:17:47;;;;;;;35.53;10.88;;;;;;;4.64;100.00;97030.44;5072868;28;20059;-77
2021/04/05 01:20:14;;;;;;;35.55;10.70;;;;;;;-141.50;100.00;63355.56;5054601;28;20143;-77
2021/04/05 01:22:42;;;;;;;33.10;10.48;;;;;;;-141.50;100.00;63355.56;5071568;28;20047;-77
2021/04/05 01:25:14;;;;;;;37.90;10.85;;;;;;;-141.50;100.00;63355.56;5074815;28;20041;-77
2021/04/05 01:27:41;;;;;;;39.15;11.20;;;;;;;-141.50;100.00;63355.56;5058506;28;20364;-78
2021/04/05 01:30:28;;;;;;;30.30;10.75;;;;;;;-141.50;100.00;63355.56;5058219;28;20044;-76
2021/04/05 01:33:10;;;;;;;34.35;11.20;;;;;;;-141.50;100.00;63355.56;5075081;28;20044;-77
2021/04/05 01:35:47;;;;;;;39.55;11.70;;;;;;;-141.50;100.00;63355.56;5074878;28;20484;-78
2021/04/05 01:38:38;;;;;;;33.30;11.02;;;;;;;-141.50;100.00;63355.56;5075699;28;20135;-78
2021/04/05 01:41:08;;;;;;;37.70;12.07;;;;;;;-141.50;100.00;63355.56;5064235;28;20048;-77
2021/04/05 01:43:36;;;;;;;35.40;11.70;;;;;;;-141.50;100.00;63355.56;5049846;28;20045;-77
2021/04/05 01:46:03;;;;;;;41.08;12.38;;;;;;;-141.50;100.00;63355.56;5074193;28;20048;-77
2021/04/05 01:48:31;;;;;;;40.47;10.95;;;;;;;-141.50;100.00;63355.56;5084695;28;20044;-76
2021/04/05 01:51:12;;;;;;;30.55;10.90;;;;;;;-141.50;100.00;63355.56;5080946;28;20495;-77
2021/04/05 01:53:40;;;;;;;33.08;10.40;;;;;;;-141.50;100.00;63355.56;5059911;28;20622;-77
2021/04/05 01:56:09;;;;;;;38.58;11.68;;;;;;;-141.50;100.00;63355.56;5076868;28;20086;-78
2021/04/05 01:58:38;;;;;;;38.75;11.43;;;;;;;-141.50;100.00;63355.56;5058383;28;20045;-77
2021/04/05 02:01:10;;;;;;;37.67;12.00;;;;;;;-141.50;100.00;63355.56;5076526;28;20088;-77
2021/04/05 02:03:37;;;;;;;31.55;11.43;;;;;;;-141.50;100.00;63355.56;5077161;28;20051;-77
2021/04/05 02:06:08;;;;;;;36.85;10.98;;;;;;;-141.50;100.00;63355.56;5077660;28;20071;-78
2021/04/05 02:08:37;;;;;;;31.05;10.88;;;;;;;-141.50;100.00;63355.56;5060251;28;20052;-77
2021/04/05 02:11:18;;;;;;;36.15;11.23;;;;;;;-141.50;100.00;63355.56;5078502;28;20052;-77
2021/04/05 02:13:46;;;;;;;34.00;11.10;;;;;;;-141.50;100.00;63355.56;5059127;28;20052;-78
2021/04/05 02:16:14;;;;;;;35.47;11.13;;;;;;;-141.50;100.00;63355.56;5075865;28;20384;-77
2021/04/05 02:18:43;;;;;;;35.38;11.20;;;;;;;-141.50;100.00;63355.56;5075835;28;20463;-77
2021/04/05 02:21:14;;;;;;;42.28;11.70;;;;;;;-141.50;100.00;63355.56;5073898;28;20051;-78
2021/04/05 02:23:41;;;;;;;35.45;11.80;;;;;;;-141.50;100.00;63355.56;5056941;28;20094;-76
2021/04/05 02:26:15;;;;;;;40.95;11.93;;;;;;;-141.50;100.00;63355.56;5075262;28;20040;-76
2021/04/05 02:28:47;;;;;;;35.80;11.35;;;;;;;-141.50;100.00;63355.56;5074262;28;20044;-76
2021/04/05 02:31:17;;;;;;;41.53;11.80;;;;;;;-141.50;100.00;63355.56;5073602;28;20060;-78
2021/04/05 02:33:47;;;;;;;34.42;11.95;;;;;;;-141.50;100.00;63355.56;5050823;28;20280;-78
2021/04/05 02:36:19;;;;;;;37.60;11.48;;;;;;;-141.50;100.00;63355.56;5066641;28;20025;-78
2021/04/05 02:38:56;;;;;;;40.78;11.68;;;;;;;-141.50;100.00;63355.56;5054682;28;20044;-79
2021/04/05 02:41:26;;;;;;;37.45;11.40;;;;;;;-141.50;100.00;63355.56;5056001;28;20503;-76
2021/04/05 02:43:53;;;;;;;32.08;11.60;;;;;;;-141.50;100.00;63355.56;5037502;28;20136;-77
2021/04/05 02:46:24;;;;;;;34.65;12.25;;;;;;;-141.50;100.00;63355.56;5055343;28;20052;-77
2021/04/05 02:48:52;;;;;;;37.50;10.75;;;;;;;-141.50;100.00;63355.56;5053545;28;20104;-77
2021/04/05 02:51:19;;;;;;;39.28;11.85;;;;;;;-141.50;100.00;63355.56;5053884;28;20033;-78
2021/04/05 02:54:05;;;;;;;35.42;11.65;;;;;;;-141.50;100.00;63355.56;5054589;28;20147;-78
2021/04/05 02:56:35;;;;;;;36.17;11.25;;;;;;;-141.50;100.00;63355.56;5053005;28;20049;-78
2021/04/05 02:59:02;;;;;;;32.25;10.95;;;;;;;-141.50;100.00;63355.56;5040715;28;20045;-77
2021/04/05 03:01:28;;;;;;;42.35;11.52;;;;;;;-141.50;100.00;63355.56;5057309;28;20041;-77
2021/04/05 03:03:59;;;;;;;32.85;10.80;;;;;;;-141.50;100.00;63355.56;5054334;28;20044;-78
2021/04/05 03:06:27;;;;;;;36.85;11.50;;;;;;;-141.50;100.00;63355.56;5053243;28;20040;-77
2021/04/05 03:08:54;;;;;;;42.20;11.43;;;;;;;-141.50;100.00;63355.56;5052309;28;20472;-78
2021/04/05 03:11:23;;;;;;;31.45;11.23;;;;;;;-141.50;100.00;63355.56;5068706;28;20049;-78
2021/04/05 03:13:51;;;;;;;38.33;11.95;;;;;;;-141.50;100.00;63355.56;5061379;28;20438;-77
2021/04/05 03:16:19;;;;;;;30.67;11.63;;;;;;;-141.50;100.00;63355.56;5063708;28;20532;-78
2021/04/05 03:18:49;;;;;;;38.00;11.60;;;;;;;-141.50;100.00;63355.56;5074233;28;20051;-78
2021/04/05 03:21:16;;;;;;;39.47;12.32;;;;;;;-141.50;100.00;63355.56;5055525;28;20048;-77
2021/04/05 03:23:44;;;;;;;41.25;12.68;;;;;;;-141.50;100.00;63355.56;5061289;28;20049;-78
2021/04/05 03:26:10;;;;;;;42.85;12.07;;;;;;;-141.50;100.00;63355.56;5060897;28;20049;-77
2021/04/05 03:28:37;;;;;;;39.17;12.60;;;;;;;-141.50;100.00;63355.56;5051889;28;20053;-77
2021/04/05 03:31:11;;;;;;;35.63;12.70;;;;;;;-141.50;100.00;63355.56;5054082;28;20136;-78
2021/04/05 03:33:46;;;;;;;39.72;12.63;;;;;;;-141.50;100.00;63355.56;5053613;28;20040;-79
2021/04/05 03:36:16;;;;;;;37.83;12.30;;;;;;;-141.50;100.00;63355.56;5054040;28;20049;-77
2021/04/05 03:38:43;;;;;;;38.20;12.73;;;;;;;-141.50;100.00;63355.56;5054991;28;20047;-78
2021/04/05 03:41:39;;;;;;;40.00;12.50;;;;;;;-141.50;100.00;63355.56;5056192;28;20128;-80
2021/04/05 03:44:13;;;;;;;36.88;13.15;;;;;;;-141.50;100.00;63355.56;5064247;28;20044;-77
2021/04/05 03:46:44;;;;;;;44.70;13.63;;;;;;;-141.50;100.00;63355.56;5075375;28;20106;-78
2021/04/05 03:49:23;;;;;;;42.85;13.30;;;;;;;-141.50;100.00;63355.56;5077203;28;20048;-76
2021/04/05 03:51:59;;;;;;;40.08;12.80;;;;;;;-141.50;100.00;63355.56;5083987;28;20511;-78
2021/04/05 03:54:27;;;;;;;37.13;12.68;;;;;;;-141.50;100.00;63355.56;5059687;28;20040;-78
2021/04/05 03:56:54;;;;;;;35.75;12.63;;;;;;;-141.50;100.00;63355.56;5075548;28;20041;-77
2021/04/05 03:59:28;;;;;;;30.48;12.57;;;;;;;-141.50;100.00;63355.56;5073985;28;20074;-78
2021/04/05 04:01:59;;;;;;;42.05;13.55;;;;;;;-141.50;100.00;63355.56;5075486;28;20052;-78
2021/04/05 04:04:34;;;;;;;33.25;11.93;;;;;;;-141.50;100.00;63355.56;5072359;28;20455;-77
2021/04/05 04:07:14;;;;;;;38.63;12.60;;;;;;;-141.50;100.00;63355.56;5073317;28;20143;-77
2021/04/05 04:09:42;;;;;;;35.53;13.10;;;;;;;-141.50;100.00;63355.56;5066542;28;20064;-78
2021/04/05 04:12:13;;;;;;;39.67;13.60;;;;;;;-141.50;100.00;63355.56;5055361;28;20095;-80
2021/04/05 04:14:42;;;;;;;41.20;13.88;;;;;;;-141.50;100.00;63355.56;5054241;28;20064;-78
2021/04/05 04:17:10;;;;;;;33.67;12.90;;;;;;;-141.50;100.00;63355.56;5053095;28;20055;-78
2021/04/05 04:19:38;;;;;;;41.72;14.10;;;;;;;-141.50;100.00;63355.56;5036040;28;20041;-78
2021/04/05 04:22:06;;;;;;;36.70;13.30;;;;;;;-141.50;100.00;63355.56;5050260;28;20416;-75
2021/04/05 04:24:36;;;;;;;39.92;13.70;;;;;;;-141.50;100.00;63355.56;5050829;28;20061;-78
2021/04/05 04:27:03;;;;;;;40.97;14.50;;;;;;;-141.50;100.00;63355.56;5051510;28;20083;-77
2021/04/05 04:29:29;;;;;;;40.80;14.15;;;;;;;-141.50;100.00;63355.56;5059504;28;20072;-78
2021/04/05 04:31:56;;;;;;;44.50;15.35;;;;;;;-141.50;100.00;63355.56;5057729;28;20048;-79
2021/04/05 04:34:24;;;;;;;46.63;14.93;;;;;;;-141.50;100.00;63355.56;5056189;28;20059;-79
2021/04/05 04:36:51;;;;;;;48.70;15.35;;;;;;;-141.50;100.00;63355.56;5053416;28;20414;-78
2021/04/05 04:39:19;;;;;;;47.75;15.23;;;;;;;-141.50;100.00;63355.56;5036290;28;20057;-79
2021/04/05 04:41:48;;;;;;;44.88;14.13;;;;;;;-141.50;100.00;63355.56;5053225;28;20044;-77
2021/04/05 04:44:15;;;;;;;41.30;14.48;;;;;;;-141.50;100.00;63355.56;5050902;28;20075;-77
2021/04/05 04:46:42;;;;;;;42.70;14.32;;;;;;;-141.50;100.00;63355.56;5051028;28;20507;-79
2021/04/05 04:49:11;;;;;;;39.63;14.18;;;;;;;-141.50;100.00;63355.56;5053293;28;20044;-78
2021/04/05 04:51:39;;;;;;;48.03;15.68;;;;;;;-141.50;100.00;63355.56;5051702;28;20124;-78
2021/04/05 04:54:10;;;;;;;50.58;14.38;;;;;;;-141.50;100.00;63355.56;5035697;28;20067;-77
2021/04/05 04:56:39;;;;;;;35.47;13.07;;;;;;;-141.50;100.00;63355.56;5052589;28;20128;-79
2021/04/05 04:59:09;;;;;;;40.65;14.02;;;;;;;-141.50;100.00;63355.56;5045522;28;20071;-80
2021/04/05 05:01:38;;;;;;;40.05;13.35;;;;;;;-141.50;100.00;63355.56;5055080;28;20049;-79
2021/04/05 05:04:30;;;;;;;41.47;13.98;;;;;;;-141.50;100.00;63355.56;5048842;28;20357;-78
2021/04/05 05:07:00;;;;;;;46.08;14.57;;;;;;;-141.50;100.00;63355.56;5053439;28;20049;-79
2021/04/05 05:09:29;;;;;;;38.70;14.25;;;;;;;-141.50;100.00;63355.56;5037894;28;20037;-78
2021/04/05 05:11:55;;;;;;;44.53;14.20;;;;;;;-141.50;100.00;63355.56;5036063;28;20056;-77
2021/04/05 05:14:23;;;;;;;38.30;14.00;;;;;;;-141.50;100.00;63355.56;5039192;28;20408;-78
2021/04/05 05:16:50;;;;;;;39.17;14.45;;;;;;;-141.50;100.00;63355.56;5039830;28;20214;-79
2021/04/05 05:19:16;;;;;;;46.38;14.20;;;;;;;-141.50;100.00;63355.56;5058954;28;20076;-79
2021/04/05 05:21:53;;;;;;;35.45;13.23;;;;;;;-141.50;100.00;63355.56;5040790;28;20159;-77
2021/04/05 05:24:25;;;;;;;50.97;14.95;;;;;;;-141.50;100.00;63355.56;5057367;28;20127;-77
2021/04/05 05:26:55;;;;;;;37.50;13.82;;;;;;;-141.50;100.00;63355.56;5056781;28;20184;-77
2021/04/05 05:29:22;;;;;;;41.42;14.30;;;;;;;-141.50;100.00;63355.56;5077418;28;20056;-77
2021/04/05 05:31:48;;;;;;;48.20;14.57;;;;;;;-141.50;100.00;63355.56;5084280;28;20059;-77
2021/04/05 05:34:20;;;;;;;42.88;15.10;;;;;;;-141.50;100.00;63355.56;5088116;28;20063;-77
2021/04/05 05:36:49;;;;;;;42.78;15.43;;;;;;;-141.50;100.00;63355.56;5085652;28;20041;-77
2021/04/05 05:39:23;;;;;;;38.03;15.02;;;;;;;-141.50;100.00;63355.56;5078202;28;20125;-77
2021/04/05 05:41:58;;;;;;;55.15;16.77;;;;;;;-141.50;100.00;63355.56;5067763;28;20038;-77
2021/04/05 05:44:39;;;;;;;41.97;14.73;;;;;;;-141.50;100.00;63355.56;5078114;28;20062;-77
2021/04/05 05:47:17;;;;;;;37.50;14.43;;;;;;;-141.50;100.00;63355.56;5052902;28;20041;-77
2021/04/05 05:49:47;;;;;;;42.78;15.15;;;;;;;-141.50;100.00;63355.56;5077594;28;20048;-78
2021/04/05 05:52:40;;;;;;;42.88;15.85;;;;;;;-141.50;100.00;63355.56;5082010;28;20230;-78
2021/04/05 05:55:45;;;;;;;46.20;14.48;;;;;;;-141.50;100.00;63355.56;5073368;28;20055;-78
2021/04/05 05:58:28;;;;;;;46.30;14.75;;;;;;;-141.50;100.00;63355.56;5045079;28;20045;-77
2021/04/05 06:01:34;;;;;;;48.22;15.55;;;;;;;-141.50;100.00;63355.56;5058407;28;20052;-76
2021/04/05 06:04:16;;;;;;;44.97;15.88;;;;;;;-141.50;100.00;63355.56;5044418;28;20095;-78
2021/04/05 06:07:12;;;;;;;44.20;14.70;;;;;;;-141.50;100.00;63355.56;5045292;28;20040;-77
2021/04/05 06:10:00;;;;;;;39.60;15.00;;;;;;;-141.50;100.00;63355.56;5064554;28;20448;-78
2021/04/05 06:12:30;;;;;;;38.75;15.32;;;;;;;-141.50;100.00;63355.56;5075459;28;20111;-77
2021/04/05 06:15:20;;;;;;;36.17;14.20;;;;;;;-141.50;100.00;63355.56;5075637;28;20040;-76
2021/04/05 06:18:11;;;;;;;35.45;14.45;;;;;;;-141.50;100.00;63355.56;5043867;28;20045;-78
2021/04/05 06:20:47;;;;;;;38.97;14.07;;;;;;;-141.50;100.00;63355.56;5035957;28;20052;-77
2021/04/05 06:23:23;;;;;;;43.53;14.45;;;;;;;-141.50;100.00;63355.56;5044765;28;20586;-79
2021/04/05 06:25:57;;;;;;;41.58;13.88;;;;;;;-141.50;100.00;63355.56;5057282;28;20044;-79
2021/04/05 06:28:35;;;;;;;42.85;14.52;;;;;;;-141.50;100.00;63355.56;5053811;28;20492;-79
2021/04/05 06:31:18;;;;;;;35.45;13.00;;;;;;;-141.50;100.00;63355.56;5054055;28;20053;-77
2021/04/05 06:33:50;;;;;;;39.90;13.75;;;;;;;-141.50;100.00;63355.56;5054928;28;20049;-77
2021/04/05 06:39:01;;;;;;;40.35;13.95;;;;;;;-141.50;100.00;63355.56;4985176;28;20057;-77
2021/04/05 06:41:36;;;;;;;36.13;12.93;;;;;;;-141.50;100.00;63355.56;4988785;28;20041;-76
2021/04/05 06:44:31;;;;;;;34.13;12.68;;;;;;;-141.50;100.00;63355.56;5003092;28;20053;-77
2021/04/05 06:47:39;;;;;;;38.72;11.85;;;;;;;-141.50;100.00;63355.56;4989646;28;20072;-77
2021/04/05 06:50:18;;;;;;;37.28;12.10;;;;;;;-141.50;100.00;63355.56;4987146;28;20058;-77
2021/04/05 06:53:02;;;;;;;37.15;12.25;;;;;;;-141.50;100.00;63355.56;4986690;28;20046;-79
2021/04/05 06:55:44;;;;;;;36.38;11.60;;;;;;;-141.50;100.00;63355.56;4995175;28;20050;-77
2021/04/05 06:58:17;;;;;;;38.40;12.10;;;;;;;-141.50;100.00;63355.56;4989603;28;20045;-78
2021/04/05 07:01:02;;;;;;;38.78;11.40;;;;;;;-141.50;100.00;63355.56;4992594;28;20046;-79
2021/04/05 07:03:32;;;;;;;33.80;11.45;;;;;;;-141.50;100.00;63355.56;4988309;28;20046;-78
2021/04/05 07:06:32;;;;;;;34.03;11.75;;;;;;;-141.50;100.00;63355.56;4988834;28;20474;-78
2021/04/05 07:09:03;;;;;;;32.08;10.88;;;;;;;-141.50;100.00;63355.56;4989186;28;20042;-78
2021/04/05 07:11:47;;;;;;;34.58;11.38;;;;;;;-141.50;100.00;63355.56;4988977;28;20052;-76
2021/04/05 07:14:42;;;;;;;38.53;11.05;;;;;;;-141.50;100.00;63355.56;4987383;28;20034;-75
2021/04/05 07:17:17;;;;;;;32.55;10.40;;;;;;;-141.50;100.00;63355.56;4993670;28;20046;-75
2021/04/05 07:19:59;;;;;;;28.58;10.43;;;;;;;-141.50;100.00;63355.56;4985024;28;20050;-76
2021/04/05 07:22:52;;;;;;;36.78;10.40;;;;;;;-141.50;100.00;63355.56;4991631;28;20042;-78
2021/04/05 07:25:24;;;;;;;31.38;10.82;;;;;;;-141.50;100.00;63355.56;4986014;28;20056;-77
2021/04/05 07:27:53;;;;;;;32.03;10.57;;;;;;;-141.50;100.00;63355.56;4975584;28;20274;-77
2021/04/05 07:30:40;;;;;;;39.00;10.52;;;;;;;-141.50;100.00;63355.56;4982257;28;20065;-79
2021/04/05 07:33:36;;;;;;;32.40;9.85;;;;;;;-141.50;100.00;63355.56;4984945;28;20038;-80
2021/04/05 07:36:27;;;;;;;29.42;10.65;;;;;;;-141.50;100.00;63355.56;5002083;28;20149;-77
2021/04/05 07:39:13;;;;;;;33.55;10.32;;;;;;;-141.50;100.00;63355.56;4987969;28;20538;-76
2021/04/05 07:42:35;;;;;;;31.27;10.40;;;;;;;-141.50;100.00;63355.56;4994797;28;20042;-75
2021/04/05 07:45:21;;;;;;;29.92;10.10;;;;;;;-141.50;100.00;63355.56;4944602;28;20062;-77
2021/04/05 07:48:08;;;;;;;28.88;10.25;;;;;;;-141.50;100.00;63355.56;4986839;28;20046;-78
2021/04/05 07:50:58;;;;;;;23.42;9.52;;;;;;;-141.50;100.00;63355.56;4990050;28;20122;-75
2021/04/05 07:54:02;;;;;;;34.25;10.48;;;;;;;-141.50;100.00;63355.56;4978853;28;20153;-76
2021/04/05 07:56:38;;;;;;;33.80;10.73;;;;;;;-141.50;100.00;63355.56;4954697;28;20147;-76
2021/04/05 07:59:21;;;;;;;30.80;9.40;;;;;;;-141.50;100.00;63355.56;4986610;28;20157;-76
2021/04/05 08:02:36;;;;;;;31.00;10.23;;;;;;;-141.50;100.00;63355.56;4986317;28;20054;-77
2021/04/05 08:05:32;;;;;;;25.38;10.43;;;;;;;-141.50;100.00;63355.56;4933396;28;20524;-77
2021/04/05 08:08:43;;;;;;;26.25;9.48;;;;;;;-141.50;100.00;63355.56;4986605;28;20050;-78
2021/04/05 08:11:26;;;;;;;29.98;9.60;;;;;;;-141.50;100.00;63355.56;4958342;28;20402;-75
2021/04/05 08:14:25;;;;;;;31.02;10.25;;;;;;;-141.50;100.00;63355.56;4973424;28;20057;-77
2021/04/05 08:16:58;;;;;;;25.58;9.60;;;;;;;-141.50;100.00;63355.56;4988554;28;20038;-76
2021/04/05 08:19:29;;;;;;;31.00;11.25;;;;;;;-141.50;100.00;63355.56;4984173;28;20042;-74
2021/04/05 08:22:02;;;;;;;29.50;9.35;;;;;;;-141.50;100.00;63355.56;4972907;28;20058;-74
2021/04/05 08:24:55;;;;;;;29.45;9.23;;;;;;;-141.50;100.00;63355.56;4984768;28;20042;-75
2021/04/05 08:27:33;;;;;;;25.67;8.93;;;;;;;-141.50;100.00;63355.56;4986843;28;20042;-77
2021/04/05 08:30:08;;;;;;;28.77;8.82;;;;;;;-141.50;100.00;63355.56;4986896;28;20050;-76
2021/04/05 08:32:50;;;;;;;23.73;9.73;;;;;;;-141.50;100.00;63355.56;4970438;28;20139;-76
2021/04/05 08:35:41;;;;;;;27.73;9.50;;;;;;;-141.50;100.00;63355.56;5004498;28;20061;-75
2021/04/05 08:38:28;;;;;;;24.20;9.38;;;;;;;-141.50;100.00;63355.56;4960428;28;20133;-76
2021/04/05 08:41:31;;;;;;;33.13;10.02;;;;;;;-141.50;100.00;63355.56;4997195;28;20070;-76
2021/04/05 08:44:34;;;;;;;32.45;10.45;;;;;;;-141.50;100.00;63355.56;5006771;28;20471;-75
2021/04/05 08:47:02;;;;;;;33.38;10.10;;;;;;;-141.50;100.00;63355.56;4991376;28;20066;-75
2021/04/05 08:49:29;;;;;;;26.90;10.07;;;;;;;-141.50;100.00;63355.56;4993159;28;20477;-75
2021/04/05 08:52:04;;;;;;;35.63;9.77;;;;;;;-141.50;100.00;63355.56;4977152;28;20054;-77
2021/04/05 08:54:33;;;;;;;33.90;10.00;;;;;;;-141.50;100.00;63355.56;4994400;28;20042;-76
2021/04/05 08:57:03;;;;;;;29.80;10.40;;;;;;;-141.50;100.00;63355.56;4994389;28;20042;-76
2021/04/05 08:59:55;;;;;;;25.75;9.60;;;;;;;-141.50;100.00;63355.56;4993960;28;20042;-76
2021/04/05 09:02:35;;;;;;;27.10;9.80;;;;;;;-141.50;100.00;63355.56;4976926;28;20377;-75
2021/04/05 09:05:10;;;;;;;31.75;11.02;;;;;;;-141.50;100.00;63355.56;5008948;28;20108;-76
2021/04/05 09:07:56;;;;;;;25.02;9.77;;;;;;;-141.50;100.00;63355.56;4976788;28;20074;-76
2021/04/05 09:10:30;;;;;;;;;;;;;;;-141.50;100.00;63355.56;4977678;28;20057;-75
2021/04/05 09:12:58;;;;;;;27.63;10.50;;;;;;;-141.50;100.00;63355.56;4994412;28;19933;-76
2021/04/05 09:15:27;;;;;;;31.20;10.50;;;;;;;-141.50;100.00;63355.56;4975763;28;20490;-75
2021/04/05 09:18:21;;;;;;;26.67;9.85;;;;;;;-141.50;100.00;63355.56;4993581;28;20061;-75
2021/04/05 09:20:54;;;;;;;33.17;9.93;;;;;;;-141.50;100.00;63355.56;4976583;28;20057;-76
2021/04/05 09:23:44;;;;;;;35.17;10.75;;;;;;;-141.50;100.00;63355.56;4992828;28;20046;-76
2021/04/05 09:26:47;;;;;;;28.20;10.60;;;;;;;-141.50;100.00;63355.56;4993153;28;20048;-75
2021/04/05 09:29:37;;;;;;;29.35;10.68;;;;;;;-141.50;100.00;63355.56;4993472;28;20046;-76
2021/04/05 09:32:13;;;;;;;29.45;10.18;;;;;;;-141.50;100.00;63355.56;4995635;28;20065;-76
2021/04/05 09:34:55;;;;;;;27.77;10.07;;;;;;;-141.50;100.00;63355.56;5007216;28;20065;-75
2021/04/05 09:37:37;;;;;;;30.33;10.02;;;;;;;-141.50;100.00;63355.56;4997242;28;20069;-75
2021/04/05 09:40:21;;;;;;;30.77;10.23;;;;;;;-141.50;100.00;63355.56;4995796;28;20105;-75
2021/04/05 09:43:24;;;;;;;29.10;10.57;;;;;;;-141.50;100.00;63355.56;4982093;28;20435;-76
2021/04/05 09:46:21;;;;;;;28.05;11.10;;;;;;;-141.50;100.00;63355.56;4993200;28;20064;-75
2021/04/05 09:49:13;;;;;;;32.35;11.13;;;;;;;-141.50;100.00;63355.56;4975551;28;20399;-76
2021/04/05 09:52:13;;;;;;;28.25;10.40;;;;;;;-141.50;100.00;63355.56;4992973;28;20042;-76
2021/04/05 09:54:52;;;;;;;29.70;11.07;;;;;;;-141.50;100.00;63355.56;4981160;28;20094;-76
2021/04/05 09:57:29;;;;;;;25.88;11.25;;;;;;;-141.50;100.00;63355.56;4987878;28;20046;-74
2021/04/05 10:00:02;;;;;;;34.85;10.45;;;;;;;-141.50;100.00;63355.56;4996499;28;20045;-76
2021/04/05 10:02:34;;;;;;;28.48;10.80;;;;;;;-141.50;100.00;63355.56;5006277;28;20371;-75
2021/04/05 10:05:02;;;;;;;27.65;10.88;;;;;;;-141.50;100.00;63355.56;5005111;28;20069;-76
2021/04/05 10:07:33;;;;;;;26.88;10.70;;;;;;;-141.50;100.00;63355.56;4993650;28;20042;-77
2021/04/05 10:10:03;;;;;;;26.98;11.45;;;;;;;-141.50;100.00;63355.56;4994357;28;20050;-77
2021/04/05 10:12:31;;;;;;;35.20;11.95;;;;;;;-141.50;100.00;63355.56;4976214;28;20042;-75
2021/04/05 10:15:01;;;;;;;33.00;11.23;;;;;;;-141.50;100.00;63355.56;4992738;28;20045;-75
2021/04/05 10:17:32;;;;;;;30.42;10.60;;;;;;;-141.50;100.00;63355.56;4993843;28;20046;-75
2021/04/05 10:20:06;;;;;;;27.30;9.52;;;;;;;-141.50;100.00;63355.56;4991862;28;20121;-76
2021/04/05 10:22:41;;;;;;;24.27;10.15;;;;;;;-141.50;100.00;63355.56;5003273;28;20045;-74
2021/04/05 10:25:09;;;;;;;28.67;10.60;;;;;;;-141.50;100.00;63355.56;5004295;28;20527;-75
2021/04/05 10:27:35;;;;;;;31.15;12.07;;;;;;;-141.50;100.00;63355.56;5011733;28;20057;-76
2021/04/05 10:30:04;;;;;;;31.40;11.38;;;;;;;-141.50;100.00;63355.56;5006309;28;20041;-75
2021/04/05 10:32:31;;;;;;;31.58;12.25;;;;;;;-141.50;100.00;63355.56;4974638;28;20058;-76
2021/04/05 10:34:59;;;;;;;35.42;12.38;;;;;;;-141.50;100.00;63355.56;4998223;28;20045;-77
2021/04/05 10:37:31;;;;;;;26.30;11.15;;;;;;;-141.50;100.00;63355.56;4990127;28;20150;-76
2021/04/05 10:39:59;;;;;;;38.42;13.80;;;;;;;-141.50;100.00;63355.56;5000104;28;20046;-78
2021/04/05 10:42:43;;;;;;;33.75;12.75;;;;;;;-141.50;100.00;63355.56;4986318;28;20156;-74
2021/04/05 10:45:17;;;;;;;35.13;14.13;;;;;;;-141.50;100.00;63355.56;5003254;28;20052;-76
2021/04/05 10:48:05;;;;;;;33.37;13.83;;;;;;;-141.50;100.00;63355.56;4981334;28;20038;-74
2021/04/05 10:50:35;;;;;;;41.00;15.05;;;;;;;-141.50;100.00;63355.56;5002384;28;20065;-75
2021/04/05 10:53:07;;;;;;;34.13;14.93;;;;;;;-141.50;100.00;63355.56;4992995;28;20052;-75
2021/04/05 10:55:40;;;;;;;37.20;13.20;;;;;;;-141.50;100.00;63355.56;4992576;28;20129;-75
2021/04/05 10:58:10;;;;;;;42.90;14.82;;;;;;;-141.50;100.00;63355.56;4994146;28;20493;-75
2021/04/05 11:00:41;;;;;;;41.10;16.08;;;;;;;-141.50;100.00;63355.56;5010815;28;20517;-74
2021/04/05 11:03:10;;;;;;;38.95;15.10;;;;;;;-141.50;100.00;63355.56;5011544;28;20050;-74
2021/04/05 11:05:38;;;;;;;46.83;16.85;;;;;;;-141.50;100.00;63355.56;5002629;28;20047;-75
2021/04/05 11:08:06;;;;;;;34.30;15.30;;;;;;;-141.50;100.00;63355.56;4985560;28;20050;-75
2021/04/05 11:10:35;;;;;;;50.22;17.55;;;;;;;-141.50;100.00;63355.56;4976540;28;20568;-75
2021/04/05 11:13:11;;;;;;;42.75;16.73;;;;;;;-141.50;100.00;63355.56;4999655;28;20057;-74
2021/04/05 11:15:42;;;;;;;41.85;17.50;;;;;;;-141.50;100.00;63355.56;5010253;28;20038;-75
2021/04/05 11:18:14;;;;;;;38.70;16.50;;;;;;;-141.50;100.00;63355.56;5009625;28;20046;-75
2021/04/05 11:20:42;;;;;;;40.60;15.68;;;;;;;-141.50;100.00;63355.56;4992800;28;20046;-75
2021/04/05 11:23:13;;;;;;;40.55;17.50;;;;;;;-141.50;100.00;63355.56;4990245;28;20105;-75
2021/04/05 11:25:49;;;;;;;41.85;15.38;;;;;;;-141.50;100.00;63355.56;4989729;28;20093;-74
2021/04/05 11:28:20;;;;;;;40.20;16.98;;;;;;;-141.50;100.00;63355.56;4982115;28;20057;-75
2021/04/05 11:30:58;;;;;;;47.67;16.25;;;;;;;-141.50;100.00;63355.56;4969384;28;20529;-75
2021/04/05 11:33:28;;;;;;;41.72;16.65;;;;;;;-141.50;100.00;63355.56;4986999;28;20042;-74
2021/04/05 11:35:55;;;;;;;37.72;16.30;;;;;;;-141.50;100.00;63355.56;4987376;28;20042;-75
2021/04/05 11:38:24;;;;;;;46.47;18.00;;;;;;;-141.50;100.00;63355.56;4986503;28;20069;-76